TW-0008 weather

China Medical University Hospital Heliport
Taichung, Taichung (city), Taiwan

Public forecast

Using degrees Celsius for public forecast. Weather courtesy of forecast.io.

Closest aviation weather report (METAR) to China Medical University Hospital Heliport

Closest report is Taichung Ching Chuang Kang Airport, 7.4 nm (13.8 km) NNW. Retrieved 2020/04/03 01:30 UTC (28 minutes ago):

RCMQ 030130Z 03005KT 6000 FEW004 SCT025 BKN050 22/19 Q1018 NOSIG RMK A3006 APCH CLD FEW004

Closest aviation forecast (TAF) to China Medical University Hospital Heliport

Closest forecast is Taichung Ching Chuang Kang Airport, 7.4 nm (13.8 km) NNW. Retrieved 2020-04-03 00:21 UTC (2 hours ago):

TAF RCMQ 022300Z 0300/0324 01010KT 2400 -RA BR SCT004 BKN010 BKN020 TX24/0306Z TN16/0320Z TEMPO 0301/0304 5000 BR SCT006 BKN016 BKN030 BECMG 0305/0308 8000 FEW006 BKN025 BKN050 BECMG 0312/0315 4800 RA BR SCT004 BKN010 BKN020 TEMPO 0320/0323 2400 BR